sensor_id;sensor_type;location;lat;lon;timestamp;P1;durP1;ratioP1;P2;durP2;ratioP2
22005;SDS011;11167;46.988;15.470;2023-05-09T00:00:15;6.00;;;5.40;;
22005;SDS011;11167;46.988;15.470;2023-05-09T00:02:16;7.22;;;6.45;;
22005;SDS011;11167;46.988;15.470;2023-05-09T00:04:17;6.65;;;5.95;;
22005;SDS011;11167;46.988;15.470;2023-05-09T00:06:19;6.33;;;5.72;;
22005;SDS011;11167;46.988;15.470;2023-05-09T00:08:21;6.83;;;6.12;;
22005;SDS011;11167;46.988;15.470;2023-05-09T00:10:22;6.03;;;5.50;;
22005;SDS011;11167;46.988;15.470;2023-05-09T00:12:23;6.95;;;6.00;;
22005;SDS011;11167;46.988;15.470;2023-05-09T00:14:24;6.28;;;5.67;;
22005;SDS011;11167;46.988;15.470;2023-05-09T00:16:25;6.67;;;6.08;;
22005;SDS011;11167;46.988;15.470;2023-05-09T00:18:28;6.62;;;5.97;;
22005;SDS011;11167;46.988;15.470;2023-05-09T00:20:30;5.60;;;5.00;;
22005;SDS011;11167;46.988;15.470;2023-05-09T00:22:33;5.53;;;5.03;;
22005;SDS011;11167;46.988;15.470;2023-05-09T00:24:34;5.70;;;5.08;;
22005;SDS011;11167;46.988;15.470;2023-05-09T00:26:35;5.42;;;4.92;;
22005;SDS011;11167;46.988;15.470;2023-05-09T00:28:36;5.97;;;5.37;;
22005;SDS011;11167;46.988;15.470;2023-05-09T00:30:38;5.00;;;4.50;;
22005;SDS011;11167;46.988;15.470;2023-05-09T00:32:39;5.37;;;4.87;;
22005;SDS011;11167;46.988;15.470;2023-05-09T00:34:41;5.10;;;4.60;;
22005;SDS011;11167;46.988;15.470;2023-05-09T00:36:42;5.33;;;4.83;;
22005;SDS011;11167;46.988;15.470;2023-05-09T00:38:43;5.55;;;5.00;;
22005;SDS011;11167;46.988;15.470;2023-05-09T00:40:44;5.95;;;5.35;;
22005;SDS011;11167;46.988;15.470;2023-05-09T00:42:45;5.97;;;5.40;;
22005;SDS011;11167;46.988;15.470;2023-05-09T00:44:46;5.72;;;5.22;;
22005;SDS011;11167;46.988;15.470;2023-05-09T00:46:47;5.40;;;4.90;;
22005;SDS011;11167;46.988;15.470;2023-05-09T00:48:48;6.00;;;5.40;;
22005;SDS011;11167;46.988;15.470;2023-05-09T00:50:49;5.70;;;5.20;;
22005;SDS011;11167;46.988;15.470;2023-05-09T00:52:52;5.60;;;5.00;;
22005;SDS011;11167;46.988;15.470;2023-05-09T00:54:54;5.90;;;5.30;;
22005;SDS011;11167;46.988;15.470;2023-05-09T00:56:56;7.25;;;5.00;;
22005;SDS011;11167;46.988;15.470;2023-05-09T00:58:57;5.83;;;5.30;;
22005;SDS011;11167;46.988;15.470;2023-05-09T01:00:59;5.90;;;5.30;;
22005;SDS011;11167;46.988;15.470;2023-05-09T01:03:01;6.42;;;5.40;;
22005;SDS011;11167;46.988;15.470;2023-05-09T01:05:04;6.05;;;5.35;;
22005;SDS011;11167;46.988;15.470;2023-05-09T01:09:35;6.33;;;5.60;;
22005;SDS011;11167;46.988;15.470;2023-05-09T01:12:06;5.55;;;5.05;;
22005;SDS011;11167;46.988;15.470;2023-05-09T01:16:28;5.70;;;5.10;;
22005;SDS011;11167;46.988;15.470;2023-05-09T01:23:00;5.85;;;5.30;;
22005;SDS011;11167;46.988;15.470;2023-05-09T01:25:25;6.22;;;5.60;;
22005;SDS011;11167;46.988;15.470;2023-05-09T01:27:56;5.87;;;5.28;;
22005;SDS011;11167;46.988;15.470;2023-05-09T01:29:57;5.37;;;4.78;;
22005;SDS011;11167;46.988;15.470;2023-05-09T01:32:12;6.40;;;5.35;;
22005;SDS011;11167;46.988;15.470;2023-05-09T01:34:16;5.42;;;4.90;;
22005;SDS011;11167;46.988;15.470;2023-05-09T01:36:19;6.17;;;5.50;;
22005;SDS011;11167;46.988;15.470;2023-05-09T01:38:21;5.37;;;4.87;;
22005;SDS011;11167;46.988;15.470;2023-05-09T01:42:29;5.47;;;4.85;;
22005;SDS011;11167;46.988;15.470;2023-05-09T01:44:36;5.10;;;4.60;;
22005;SDS011;11167;46.988;15.470;2023-05-09T01:46:40;5.65;;;5.00;;
22005;SDS011;11167;46.988;15.470;2023-05-09T01:48:49;6.03;;;5.42;;
22005;SDS011;11167;46.988;15.470;2023-05-09T01:50:52;5.80;;;5.28;;
22005;SDS011;11167;46.988;15.470;2023-05-09T01:52:54;6.22;;;5.15;;
22005;SDS011;11167;46.988;15.470;2023-05-09T01:54:57;5.90;;;4.90;;
22005;SDS011;11167;46.988;15.470;2023-05-09T01:57:00;5.22;;;4.72;;
22005;SDS011;11167;46.988;15.470;2023-05-09T01:59:04;5.75;;;5.15;;
22005;SDS011;11167;46.988;15.470;2023-05-09T02:01:07;5.60;;;5.10;;
22005;SDS011;11167;46.988;15.470;2023-05-09T02:03:09;5.50;;;5.00;;
22005;SDS011;11167;46.988;15.470;2023-05-09T02:05:11;6.20;;;5.60;;
22005;SDS011;11167;46.988;15.470;2023-05-09T02:07:14;6.45;;;5.70;;
22005;SDS011;11167;46.988;15.470;2023-05-09T02:09:17;5.58;;;5.08;;
22005;SDS011;11167;46.988;15.470;2023-05-09T02:11:19;5.58;;;5.08;;
22005;SDS011;11167;46.988;15.470;2023-05-09T02:13:20;5.60;;;4.92;;
22005;SDS011;11167;46.988;15.470;2023-05-09T02:15:21;6.12;;;4.75;;
22005;SDS011;11167;46.988;15.470;2023-05-09T02:17:23;5.15;;;4.62;;
22005;SDS011;11167;46.988;15.470;2023-05-09T02:19:24;4.75;;;4.22;;
22005;SDS011;11167;46.988;15.470;2023-05-09T02:21:25;5.10;;;4.60;;
22005;SDS011;11167;46.988;15.470;2023-05-09T02:23:26;5.12;;;4.50;;
22005;SDS011;11167;46.988;15.470;2023-05-09T02:25:27;5.20;;;4.35;;
22005;SDS011;11167;46.988;15.470;2023-05-09T02:27:30;4.85;;;4.45;;
22005;SDS011;11167;46.988;15.470;2023-05-09T02:29:33;5.33;;;4.83;;
22005;SDS011;11167;46.988;15.470;2023-05-09T02:31:38;5.20;;;4.60;;
22005;SDS011;11167;46.988;15.470;2023-05-09T02:33:43;5.78;;;4.65;;
22005;SDS011;11167;46.988;15.470;2023-05-09T02:35:47;5.10;;;4.60;;
22005;SDS011;11167;46.988;15.470;2023-05-09T02:37:48;4.75;;;4.35;;
22005;SDS011;11167;46.988;15.470;2023-05-09T02:39:51;4.83;;;4.30;;
22005;SDS011;11167;46.988;15.470;2023-05-09T02:41:52;5.15;;;4.65;;
22005;SDS011;11167;46.988;15.470;2023-05-09T02:43:53;5.42;;;4.92;;
22005;SDS011;11167;46.988;15.470;2023-05-09T02:45:55;4.78;;;4.30;;
22005;SDS011;11167;46.988;15.470;2023-05-09T02:47:56;5.35;;;4.83;;
22005;SDS011;11167;46.988;15.470;2023-05-09T02:49:57;4.65;;;4.25;;
22005;SDS011;11167;46.988;15.470;2023-05-09T02:54:00;6.12;;;5.53;;
22005;SDS011;11167;46.988;15.470;2023-05-09T02:56:07;6.85;;;6.05;;
22005;SDS011;11167;46.988;15.470;2023-05-09T02:58:09;6.78;;;6.08;;
22005;SDS011;11167;46.988;15.470;2023-05-09T03:00:10;6.78;;;5.85;;
22005;SDS011;11167;46.988;15.470;2023-05-09T03:02:12;6.33;;;5.08;;
22005;SDS011;11167;46.988;15.470;2023-05-09T03:04:13;6.55;;;5.58;;
22005;SDS011;11167;46.988;15.470;2023-05-09T03:06:15;5.72;;;5.17;;
22005;SDS011;11167;46.988;15.470;2023-05-09T03:08:17;5.60;;;5.10;;
22005;SDS011;11167;46.988;15.470;2023-05-09T03:10:18;6.00;;;5.40;;
22005;SDS011;11167;46.988;15.470;2023-05-09T03:12:19;5.33;;;4.80;;
22005;SDS011;11167;46.988;15.470;2023-05-09T03:14:20;5.67;;;5.00;;
22005;SDS011;11167;46.988;15.470;2023-05-09T03:16:21;6.53;;;4.70;;
22005;SDS011;11167;46.988;15.470;2023-05-09T03:18:22;5.03;;;4.35;;
22005;SDS011;11167;46.988;15.470;2023-05-09T03:20:24;5.72;;;4.70;;
22005;SDS011;11167;46.988;15.470;2023-05-09T03:22:26;5.22;;;4.72;;
22005;SDS011;11167;46.988;15.470;2023-05-09T03:24:27;4.85;;;4.45;;
22005;SDS011;11167;46.988;15.470;2023-05-09T03:28:35;5.15;;;4.50;;
22005;SDS011;11167;46.988;15.470;2023-05-09T03:30:37;4.92;;;4.42;;
22005;SDS011;11167;46.988;15.470;2023-05-09T03:32:38;5.10;;;4.60;;
22005;SDS011;11167;46.988;15.470;2023-05-09T03:34:39;4.65;;;4.22;;
22005;SDS011;11167;46.988;15.470;2023-05-09T03:36:42;4.60;;;4.20;;
22005;SDS011;11167;46.988;15.470;2023-05-09T03:38:43;4.95;;;4.45;;
22005;SDS011;11167;46.988;15.470;2023-05-09T03:40:44;4.65;;;4.20;;
22005;SDS011;11167;46.988;15.470;2023-05-09T03:42:45;4.85;;;4.35;;
22005;SDS011;11167;46.988;15.470;2023-05-09T03:44:48;4.42;;;4.03;;
22005;SDS011;11167;46.988;15.470;2023-05-09T03:46:49;4.90;;;4.40;;
22005;SDS011;11167;46.988;15.470;2023-05-09T03:48:50;6.20;;;4.05;;
22005;SDS011;11167;46.988;15.470;2023-05-09T03:50:51;4.55;;;4.12;;
22005;SDS011;11167;46.988;15.470;2023-05-09T03:52:52;4.70;;;4.15;;
22005;SDS011;11167;46.988;15.470;2023-05-09T03:54:54;4.03;;;3.65;;
22005;SDS011;11167;46.988;15.470;2023-05-09T03:56:55;6.20;;;4.33;;
22005;SDS011;11167;46.988;15.470;2023-05-09T03:58:56;4.37;;;3.98;;
22005;SDS011;11167;46.988;15.470;2023-05-09T04:00:57;5.85;;;4.12;;
22005;SDS011;11167;46.988;15.470;2023-05-09T04:02:58;4.37;;;3.98;;
22005;SDS011;11167;46.988;15.470;2023-05-09T04:04:59;4.10;;;3.70;;
22005;SDS011;11167;46.988;15.470;2023-05-09T04:07:01;4.47;;;4.08;;
22005;SDS011;11167;46.988;15.470;2023-05-09T04:09:02;4.17;;;3.77;;
22005;SDS011;11167;46.988;15.470;2023-05-09T04:11:03;3.60;;;3.30;;
22005;SDS011;11167;46.988;15.470;2023-05-09T04:13:04;4.00;;;3.70;;
22005;SDS011;11167;46.988;15.470;2023-05-09T04:15:06;5.03;;;4.30;;
22005;SDS011;11167;46.988;15.470;2023-05-09T04:17:07;5.62;;;3.70;;
22005;SDS011;11167;46.988;15.470;2023-05-09T04:19:08;4.22;;;3.80;;
22005;SDS011;11167;46.988;15.470;2023-05-09T04:21:10;5.67;;;4.12;;
22005;SDS011;11167;46.988;15.470;2023-05-09T04:23:11;4.08;;;3.67;;
22005;SDS011;11167;46.988;15.470;2023-05-09T04:25:12;5.72;;;3.75;;
22005;SDS011;11167;46.988;15.470;2023-05-09T04:27:14;4.10;;;3.70;;
22005;SDS011;11167;46.988;15.470;2023-05-09T04:29:15;4.25;;;3.85;;
22005;SDS011;11167;46.988;15.470;2023-05-09T04:31:16;5.65;;;3.50;;
22005;SDS011;11167;46.988;15.470;2023-05-09T04:33:17;4.40;;;3.50;;
22005;SDS011;11167;46.988;15.470;2023-05-09T04:35:18;5.33;;;3.83;;
22005;SDS011;11167;46.988;15.470;2023-05-09T04:37:19;4.20;;;3.80;;
22005;SDS011;11167;46.988;15.470;2023-05-09T04:39:20;4.15;;;3.40;;
22005;SDS011;11167;46.988;15.470;2023-05-09T04:41:22;3.72;;;3.40;;
22005;SDS011;11167;46.988;15.470;2023-05-09T04:43:23;4.33;;;3.92;;
22005;SDS011;11167;46.988;15.470;2023-05-09T04:45:26;5.20;;;3.77;;
22005;SDS011;11167;46.988;15.470;2023-05-09T04:47:27;4.10;;;3.70;;
22005;SDS011;11167;46.988;15.470;2023-05-09T04:49:28;5.45;;;4.00;;
22005;SDS011;11167;46.988;15.470;2023-05-09T04:51:30;3.60;;;3.30;;
22005;SDS011;11167;46.988;15.470;2023-05-09T04:53:31;4.22;;;3.77;;
22005;SDS011;11167;46.988;15.470;2023-05-09T04:55:34;4.15;;;3.75;;
22005;SDS011;11167;46.988;15.470;2023-05-09T04:57:35;3.65;;;3.35;;
22005;SDS011;11167;46.988;15.470;2023-05-09T04:59:37;4.50;;;3.77;;
22005;SDS011;11167;46.988;15.470;2023-05-09T05:01:38;4.20;;;3.80;;
22005;SDS011;11167;46.988;15.470;2023-05-09T05:03:39;4.17;;;3.67;;
22005;SDS011;11167;46.988;15.470;2023-05-09T05:05:40;3.98;;;3.58;;
22005;SDS011;11167;46.988;15.470;2023-05-09T05:07:41;4.00;;;3.35;;
22005;SDS011;11167;46.988;15.470;2023-05-09T05:09:43;4.17;;;3.60;;
22005;SDS011;11167;46.988;15.470;2023-05-09T05:11:44;4.15;;;3.50;;
22005;SDS011;11167;46.988;15.470;2023-05-09T05:13:45;3.60;;;3.30;;
22005;SDS011;11167;46.988;15.470;2023-05-09T05:15:47;3.55;;;3.25;;
22005;SDS011;11167;46.988;15.470;2023-05-09T05:17:49;4.12;;;3.60;;
22005;SDS011;11167;46.988;15.470;2023-05-09T05:19:50;3.95;;;3.37;;
22005;SDS011;11167;46.988;15.470;2023-05-09T05:21:51;3.70;;;3.30;;
22005;SDS011;11167;46.988;15.470;2023-05-09T05:23:52;3.67;;;3.30;;
22005;SDS011;11167;46.988;15.470;2023-05-09T05:25:53;3.30;;;3.00;;
22005;SDS011;11167;46.988;15.470;2023-05-09T05:27:54;4.65;;;3.67;;
22005;SDS011;11167;46.988;15.470;2023-05-09T05:29:55;4.70;;;3.60;;
22005;SDS011;11167;46.988;15.470;2023-05-09T05:31:56;4.80;;;3.33;;
22005;SDS011;11167;46.988;15.470;2023-05-09T05:33:57;4.25;;;3.42;;
22005;SDS011;11167;46.988;15.470;2023-05-09T05:35:58;3.52;;;3.22;;
22005;SDS011;11167;46.988;15.470;2023-05-09T05:38:00;3.92;;;3.52;;
22005;SDS011;11167;46.988;15.470;2023-05-09T05:40:01;3.40;;;3.10;;
22005;SDS011;11167;46.988;15.470;2023-05-09T05:42:02;3.50;;;3.20;;
22005;SDS011;11167;46.988;15.470;2023-05-09T05:44:03;3.70;;;3.33;;
22005;SDS011;11167;46.988;15.470;2023-05-09T05:46:04;4.25;;;3.55;;
22005;SDS011;11167;46.988;15.470;2023-05-09T05:48:05;3.40;;;3.10;;
22005;SDS011;11167;46.988;15.470;2023-05-09T05:50:06;4.03;;;3.20;;
22005;SDS011;11167;46.988;15.470;2023-05-09T05:52:09;3.55;;;3.20;;
22005;SDS011;11167;46.988;15.470;2023-05-09T05:54:10;3.95;;;3.35;;
22005;SDS011;11167;46.988;15.470;2023-05-09T05:56:12;3.20;;;2.90;;
22005;SDS011;11167;46.988;15.470;2023-05-09T05:58:14;3.70;;;3.02;;
22005;SDS011;11167;46.988;15.470;2023-05-09T06:00:15;3.33;;;3.00;;
22005;SDS011;11167;46.988;15.470;2023-05-09T06:02:17;3.20;;;2.90;;
22005;SDS011;11167;46.988;15.470;2023-05-09T06:04:18;3.42;;;3.02;;
22005;SDS011;11167;46.988;15.470;2023-05-09T06:06:20;3.47;;;2.95;;
22005;SDS011;11167;46.988;15.470;2023-05-09T06:08:21;3.85;;;3.22;;
22005;SDS011;11167;46.988;15.470;2023-05-09T06:10:22;4.42;;;3.00;;
22005;SDS011;11167;46.988;15.470;2023-05-09T06:12:24;5.60;;;3.10;;
22005;SDS011;11167;46.988;15.470;2023-05-09T06:14:26;3.10;;;2.77;;
22005;SDS011;11167;46.988;15.470;2023-05-09T06:16:27;3.12;;;2.83;;
22005;SDS011;11167;46.988;15.470;2023-05-09T06:18:28;3.45;;;2.87;;
22005;SDS011;11167;46.988;15.470;2023-05-09T06:20:29;3.67;;;2.80;;
22005;SDS011;11167;46.988;15.470;2023-05-09T06:22:30;3.80;;;3.00;;
22005;SDS011;11167;46.988;15.470;2023-05-09T06:24:31;4.15;;;3.37;;
22005;SDS011;11167;46.988;15.470;2023-05-09T06:26:32;3.27;;;2.98;;
22005;SDS011;11167;46.988;15.470;2023-05-09T06:28:33;3.05;;;2.75;;
22005;SDS011;11167;46.988;15.470;2023-05-09T06:30:35;3.20;;;2.90;;
22005;SDS011;11167;46.988;15.470;2023-05-09T06:32:36;4.12;;;2.85;;
22005;SDS011;11167;46.988;15.470;2023-05-09T06:34:37;3.20;;;2.90;;
22005;SDS011;11167;46.988;15.470;2023-05-09T06:36:38;3.40;;;2.85;;
22005;SDS011;11167;46.988;15.470;2023-05-09T06:38:40;3.22;;;2.80;;
22005;SDS011;11167;46.988;15.470;2023-05-09T06:40:41;4.05;;;3.05;;
22005;SDS011;11167;46.988;15.470;2023-05-09T06:42:42;3.08;;;2.77;;
22005;SDS011;11167;46.988;15.470;2023-05-09T06:44:43;3.55;;;2.60;;
22005;SDS011;11167;46.988;15.470;2023-05-09T06:46:43;3.40;;;2.85;;
22005;SDS011;11167;46.988;15.470;2023-05-09T06:48:44;3.70;;;3.30;;
22005;SDS011;11167;46.988;15.470;2023-05-09T06:50:46;3.15;;;2.85;;
22005;SDS011;11167;46.988;15.470;2023-05-09T06:52:47;3.15;;;2.67;;
22005;SDS011;11167;46.988;15.470;2023-05-09T06:54:48;3.42;;;2.60;;
22005;SDS011;11167;46.988;15.470;2023-05-09T06:56:49;3.65;;;2.95;;
22005;SDS011;11167;46.988;15.470;2023-05-09T06:58:50;3.40;;;2.60;;
22005;SDS011;11167;46.988;15.470;2023-05-09T07:00:51;3.05;;;2.67;;
22005;SDS011;11167;46.988;15.470;2023-05-09T07:02:53;3.37;;;2.90;;
22005;SDS011;11167;46.988;15.470;2023-05-09T07:04:54;3.45;;;2.70;;
22005;SDS011;11167;46.988;15.470;2023-05-09T07:06:55;3.60;;;2.80;;
22005;SDS011;11167;46.988;15.470;2023-05-09T07:08:56;2.92;;;2.62;;
22005;SDS011;11167;46.988;15.470;2023-05-09T07:10:57;3.47;;;2.80;;
22005;SDS011;11167;46.988;15.470;2023-05-09T07:12:58;3.02;;;2.60;;
22005;SDS011;11167;46.988;15.470;2023-05-09T07:14:59;2.58;;;2.37;;
22005;SDS011;11167;46.988;15.470;2023-05-09T07:17:00;3.08;;;2.60;;
22005;SDS011;11167;46.988;15.470;2023-05-09T07:19:01;2.95;;;2.50;;
22005;SDS011;11167;46.988;15.470;2023-05-09T07:21:03;3.75;;;2.98;;
22005;SDS011;11167;46.988;15.470;2023-05-09T07:23:04;3.25;;;2.95;;
22005;SDS011;11167;46.988;15.470;2023-05-09T07:25:06;3.45;;;2.87;;
22005;SDS011;11167;46.988;15.470;2023-05-09T07:27:08;3.20;;;2.90;;
22005;SDS011;11167;46.988;15.470;2023-05-09T07:29:09;3.05;;;2.60;;
22005;SDS011;11167;46.988;15.470;2023-05-09T07:31:10;3.47;;;2.85;;
22005;SDS011;11167;46.988;15.470;2023-05-09T07:33:11;3.17;;;2.52;;
22005;SDS011;11167;46.988;15.470;2023-05-09T07:35:12;3.80;;;2.72;;
22005;SDS011;11167;46.988;15.470;2023-05-09T07:37:14;3.17;;;2.87;;
22005;SDS011;11167;46.988;15.470;2023-05-09T07:39:15;3.30;;;2.90;;
22005;SDS011;11167;46.988;15.470;2023-05-09T07:41:16;3.22;;;2.92;;
22005;SDS011;11167;46.988;15.470;2023-05-09T07:43:17;3.92;;;3.15;;
22005;SDS011;11167;46.988;15.470;2023-05-09T07:45:18;3.40;;;2.77;;
22005;SDS011;11167;46.988;15.470;2023-05-09T07:47:19;2.80;;;2.60;;
22005;SDS011;11167;46.988;15.470;2023-05-09T07:49:20;3.25;;;2.95;;
22005;SDS011;11167;46.988;15.470;2023-05-09T07:51:21;3.58;;;2.62;;
22005;SDS011;11167;46.988;15.470;2023-05-09T07:53:23;3.05;;;2.65;;
22005;SDS011;11167;46.988;15.470;2023-05-09T07:55:24;3.00;;;2.67;;
22005;SDS011;11167;46.988;15.470;2023-05-09T07:57:25;3.70;;;2.90;;
22005;SDS011;11167;46.988;15.470;2023-05-09T07:59:26;3.08;;;2.77;;
22005;SDS011;11167;46.988;15.470;2023-05-09T08:01:27;3.45;;;2.72;;
22005;SDS011;11167;46.988;15.470;2023-05-09T08:03:28;3.30;;;3.00;;
22005;SDS011;11167;46.988;15.470;2023-05-09T08:05:29;3.60;;;3.08;;
22005;SDS011;11167;46.988;15.470;2023-05-09T08:07:30;3.72;;;2.67;;
22005;SDS011;11167;46.988;15.470;2023-05-09T08:09:31;3.08;;;2.77;;
22005;SDS011;11167;46.988;15.470;2023-05-09T08:11:32;2.98;;;2.67;;
22005;SDS011;11167;46.988;15.470;2023-05-09T08:13:34;3.87;;;2.67;;
22005;SDS011;11167;46.988;15.470;2023-05-09T08:15:35;3.12;;;2.77;;
22005;SDS011;11167;46.988;15.470;2023-05-09T08:17:36;3.55;;;3.15;;
22005;SDS011;11167;46.988;15.470;2023-05-09T08:19:37;4.47;;;3.00;;
22005;SDS011;11167;46.988;15.470;2023-05-09T08:21:38;3.08;;;2.77;;
22005;SDS011;11167;46.988;15.470;2023-05-09T08:23:40;4.22;;;2.72;;
22005;SDS011;11167;46.988;15.470;2023-05-09T08:25:41;3.30;;;2.90;;
22005;SDS011;11167;46.988;15.470;2023-05-09T08:27:42;3.20;;;2.90;;
22005;SDS011;11167;46.988;15.470;2023-05-09T08:29:44;3.12;;;2.70;;
22005;SDS011;11167;46.988;15.470;2023-05-09T08:31:45;3.70;;;3.25;;
22005;SDS011;11167;46.988;15.470;2023-05-09T08:33:46;3.52;;;2.90;;
22005;SDS011;11167;46.988;15.470;2023-05-09T08:35:50;3.65;;;3.00;;
22005;SDS011;11167;46.988;15.470;2023-05-09T08:37:54;3.30;;;3.00;;
22005;SDS011;11167;46.988;15.470;2023-05-09T08:39:55;3.12;;;2.80;;
22005;SDS011;11167;46.988;15.470;2023-05-09T08:42:00;3.33;;;3.02;;
22005;SDS011;11167;46.988;15.470;2023-05-09T08:44:01;5.08;;;3.22;;
22005;SDS011;11167;46.988;15.470;2023-05-09T08:46:05;3.47;;;3.17;;
22005;SDS011;11167;46.988;15.470;2023-05-09T08:48:07;4.03;;;3.62;;
22005;SDS011;11167;46.988;15.470;2023-05-09T08:50:09;3.37;;;3.00;;
22005;SDS011;11167;46.988;15.470;2023-05-09T08:52:11;3.77;;;3.15;;
22005;SDS011;11167;46.988;15.470;2023-05-09T08:54:13;4.20;;;3.30;;
22005;SDS011;11167;46.988;15.470;2023-05-09T08:56:15;3.52;;;3.22;;
22005;SDS011;11167;46.988;15.470;2023-05-09T08:58:21;3.33;;;2.98;;
22005;SDS011;11167;46.988;15.470;2023-05-09T09:00:21;3.60;;;3.15;;
22005;SDS011;11167;46.988;15.470;2023-05-09T09:02:23;3.83;;;3.42;;
22005;SDS011;11167;46.988;15.470;2023-05-09T09:04:25;3.35;;;3.05;;
22005;SDS011;11167;46.988;15.470;2023-05-09T09:06:27;3.62;;;3.27;;
22005;SDS011;11167;46.988;15.470;2023-05-09T09:08:29;3.90;;;3.50;;
22005;SDS011;11167;46.988;15.470;2023-05-09T09:10:31;3.72;;;3.33;;
22005;SDS011;11167;46.988;15.470;2023-05-09T09:12:32;3.40;;;3.10;;
22005;SDS011;11167;46.988;15.470;2023-05-09T09:14:36;3.37;;;2.98;;
22005;SDS011;11167;46.988;15.470;2023-05-09T09:16:37;3.40;;;3.10;;
22005;SDS011;11167;46.988;15.470;2023-05-09T09:18:41;3.83;;;3.30;;
22005;SDS011;11167;46.988;15.470;2023-05-09T09:20:47;3.50;;;3.10;;
22005;SDS011;11167;46.988;15.470;2023-05-09T09:22:47;3.35;;;3.02;;
22005;SDS011;11167;46.988;15.470;2023-05-09T09:24:50;3.40;;;3.10;;
22005;SDS011;11167;46.988;15.470;2023-05-09T09:26:51;3.20;;;2.90;;
22005;SDS011;11167;46.988;15.470;2023-05-09T09:28:53;3.02;;;2.70;;
22005;SDS011;11167;46.988;15.470;2023-05-09T09:30:56;4.15;;;3.05;;
22005;SDS011;11167;46.988;15.470;2023-05-09T09:32:59;2.90;;;2.60;;
22005;SDS011;11167;46.988;15.470;2023-05-09T09:37:09;3.50;;;2.55;;
22005;SDS011;11167;46.988;15.470;2023-05-09T09:39:14;3.17;;;2.85;;
22005;SDS011;11167;46.988;15.470;2023-05-09T09:41:15;3.30;;;3.00;;
22005;SDS011;11167;46.988;15.470;2023-05-09T09:43:17;4.87;;;2.85;;
22005;SDS011;11167;46.988;15.470;2023-05-09T09:45:18;3.20;;;2.83;;
22005;SDS011;11167;46.988;15.470;2023-05-09T09:47:19;3.20;;;2.90;;
22005;SDS011;11167;46.988;15.470;2023-05-09T09:49:23;3.58;;;3.20;;
22005;SDS011;11167;46.988;15.470;2023-05-09T09:51:25;3.00;;;2.70;;
22005;SDS011;11167;46.988;15.470;2023-05-09T09:53:28;3.17;;;2.87;;
22005;SDS011;11167;46.988;15.470;2023-05-09T09:55:33;4.33;;;3.12;;
22005;SDS011;11167;46.988;15.470;2023-05-09T09:57:35;3.50;;;3.20;;
22005;SDS011;11167;46.988;15.470;2023-05-09T09:59:37;3.12;;;2.70;;
22005;SDS011;11167;46.988;15.470;2023-05-09T10:04:01;3.37;;;3.08;;
22005;SDS011;11167;46.988;15.470;2023-05-09T10:06:03;3.25;;;2.95;;
22005;SDS011;11167;46.988;15.470;2023-05-09T10:08:04;3.17;;;2.87;;
22005;SDS011;11167;46.988;15.470;2023-05-09T10:10:07;2.95;;;2.67;;
22005;SDS011;11167;46.988;15.470;2023-05-09T10:12:09;2.72;;;2.52;;
22005;SDS011;11167;46.988;15.470;2023-05-09T10:14:10;4.50;;;2.92;;
22005;SDS011;11167;46.988;15.470;2023-05-09T10:16:11;3.50;;;2.83;;
22005;SDS011;11167;46.988;15.470;2023-05-09T10:18:13;4.12;;;3.20;;
22005;SDS011;11167;46.988;15.470;2023-05-09T10:20:18;3.75;;;3.35;;
22005;SDS011;11167;46.988;15.470;2023-05-09T10:22:20;3.90;;;3.50;;
22005;SDS011;11167;46.988;15.470;2023-05-09T10:24:25;3.52;;;3.10;;
22005;SDS011;11167;46.988;15.470;2023-05-09T10:26:28;3.35;;;3.05;;
22005;SDS011;11167;46.988;15.470;2023-05-09T10:28:34;4.42;;;3.37;;
22005;SDS011;11167;46.988;15.470;2023-05-09T10:30:44;4.47;;;3.42;;
22005;SDS011;11167;46.988;15.470;2023-05-09T10:34:57;3.62;;;3.30;;
22005;SDS011;11167;46.988;15.470;2023-05-09T10:36:59;5.45;;;3.70;;
22005;SDS011;11167;46.988;15.470;2023-05-09T10:39:01;3.92;;;3.42;;
22005;SDS011;11167;46.988;15.470;2023-05-09T10:41:02;3.67;;;3.33;;
22005;SDS011;11167;46.988;15.470;2023-05-09T10:43:05;3.90;;;3.40;;
22005;SDS011;11167;46.988;15.470;2023-05-09T10:45:09;3.80;;;3.20;;
22005;SDS011;11167;46.988;15.470;2023-05-09T10:47:11;4.03;;;3.62;;
22005;SDS011;11167;46.988;15.470;2023-05-09T10:49:13;4.17;;;3.77;;
22005;SDS011;11167;46.988;15.470;2023-05-09T10:51:15;3.58;;;3.10;;
22005;SDS011;11167;46.988;15.470;2023-05-09T10:53:17;4.65;;;3.80;;
22005;SDS011;11167;46.988;15.470;2023-05-09T10:55:18;3.85;;;3.55;;
22005;SDS011;11167;46.988;15.470;2023-05-09T10:57:19;3.98;;;3.55;;
22005;SDS011;11167;46.988;15.470;2023-05-09T11:01:42;4.00;;;3.60;;
22005;SDS011;11167;46.988;15.470;2023-05-09T11:03:56;3.62;;;3.33;;
22005;SDS011;11167;46.988;15.470;2023-05-09T11:05:59;3.47;;;3.02;;
22005;SDS011;11167;46.988;15.470;2023-05-09T11:08:19;4.97;;;3.20;;
22005;SDS011;11167;46.988;15.470;2023-05-09T11:10:21;4.72;;;3.52;;
22005;SDS011;11167;46.988;15.470;2023-05-09T11:12:22;3.95;;;3.47;;
22005;SDS011;11167;46.988;15.470;2023-05-09T11:16:55;3.40;;;3.10;;
22005;SDS011;11167;46.988;15.470;2023-05-09T11:18:59;4.20;;;3.77;;
22005;SDS011;11167;46.988;15.470;2023-05-09T11:21:09;3.70;;;3.40;;
22005;SDS011;11167;46.988;15.470;2023-05-09T11:23:08;3.70;;;3.40;;
22005;SDS011;11167;46.988;15.470;2023-05-09T11:25:14;3.70;;;3.35;;
22005;SDS011;11167;46.988;15.470;2023-05-09T11:29:26;3.62;;;3.27;;
22005;SDS011;11167;46.988;15.470;2023-05-09T11:33:28;3.85;;;3.30;;
22005;SDS011;11167;46.988;15.470;2023-05-09T11:35:30;4.05;;;3.17;;
22005;SDS011;11167;46.988;15.470;2023-05-09T11:37:32;4.08;;;3.00;;
22005;SDS011;11167;46.988;15.470;2023-05-09T11:39:41;3.62;;;3.27;;
22005;SDS011;11167;46.988;15.470;2023-05-09T11:41:58;4.95;;;3.40;;
22005;SDS011;11167;46.988;15.470;2023-05-09T11:43:59;4.00;;;3.50;;
22005;SDS011;11167;46.988;15.470;2023-05-09T11:46:00;3.65;;;3.35;;
22005;SDS011;11167;46.988;15.470;2023-05-09T11:48:07;3.55;;;3.25;;
22005;SDS011;11167;46.988;15.470;2023-05-09T11:50:10;3.80;;;3.40;;
22005;SDS011;11167;46.988;15.470;2023-05-09T11:52:12;3.87;;;3.30;;
22005;SDS011;11167;46.988;15.470;2023-05-09T11:54:13;3.80;;;3.45;;
22005;SDS011;11167;46.988;15.470;2023-05-09T11:56:14;5.87;;;3.30;;
22005;SDS011;11167;46.988;15.470;2023-05-09T11:58:16;4.70;;;3.40;;
22005;SDS011;11167;46.988;15.470;2023-05-09T12:00:19;3.55;;;2.92;;
22005;SDS011;11167;46.988;15.470;2023-05-09T12:02:22;3.90;;;3.30;;
22005;SDS011;11167;46.988;15.470;2023-05-09T12:04:23;4.45;;;3.75;;
22005;SDS011;11167;46.988;15.470;2023-05-09T12:06:24;3.40;;;3.10;;
22005;SDS011;11167;46.988;15.470;2023-05-09T12:08:27;3.72;;;3.33;;
22005;SDS011;11167;46.988;15.470;2023-05-09T12:10:28;3.52;;;3.22;;
22005;SDS011;11167;46.988;15.470;2023-05-09T12:12:29;3.50;;;3.20;;
22005;SDS011;11167;46.988;15.470;2023-05-09T12:14:34;3.60;;;2.87;;
22005;SDS011;11167;46.988;15.470;2023-05-09T12:16:35;3.60;;;3.30;;
22005;SDS011;11167;46.988;15.470;2023-05-09T12:18:48;3.87;;;2.92;;
22005;SDS011;11167;46.988;15.470;2023-05-09T12:20:47;3.87;;;3.37;;
22005;SDS011;11167;46.988;15.470;2023-05-09T12:22:52;3.50;;;3.05;;
22005;SDS011;11167;46.988;15.470;2023-05-09T12:24:53;3.60;;;3.30;;
22005;SDS011;11167;46.988;15.470;2023-05-09T12:26:55;3.08;;;2.75;;
22005;SDS011;11167;46.988;15.470;2023-05-09T12:28:58;3.52;;;3.05;;
22005;SDS011;11167;46.988;15.470;2023-05-09T12:30:59;3.85;;;3.42;;
22005;SDS011;11167;46.988;15.470;2023-05-09T12:33:00;3.47;;;3.10;;
22005;SDS011;11167;46.988;15.470;2023-05-09T12:35:02;3.65;;;3.27;;